Snow/Ice From: 16-12-2017 16:00 Until: 17-12-2017 16:00 warning for: Snow/Ice Level: Yellow info button

Although rather usual in this region, locally or potentially dangerous phenomena are expected. (such as local winds, summer thunderstorms, rising streams or high waves) Be aware and pay attention to the latest weather updates, especially if you carry out activities exposed to weather or close to a stream or shoreline. 


Meteo18 Weather Cam more information Meteo18 Weather Cam


Thunder radar more information blitzortung!


warning for Snow/Ice more information rain snow radar


Visit our other weather sites:

Template documentation
and downloads

And another site



Weather Underground History page Text

Daily Summary for August 9, 2017 Units:  Both    English   Metric
« Previous Day
Next Day »
Daily Weekly Monthly Yearly Custom
  High: Low: Average:
Temperature: 64.4 °F /  18.0 °C 54 °F /  12.2 °C 58.3 °F /  14.6 °C
Dew Point: 59.7 °F /  15.4 °C 48.4 °F /  9.1 °C 52.9 °F /  11.6 °C
Humidity: 94 % 64 % 83 %
Wind Speed: 14 mph /  22.5 km/h - 2.7 mph /  4.3 km/h
Wind Gust: 16 mph /  25.7 km/h - -
Wind:- - SW
Pressure: 30.1 in /  1020.5 hPa 30 in /  1016.5 hPa -
Precipitation: 0.29 in /  7.4 mm    
Historical Graphs
 
 
Tabular Data for August 9, 2017
Time Temperature Dew Point Pressure Wind Wind Speed Wind Gust Humidity Rainfall Rate (Hourly)
00:02 58.6 °F /  14.8 °C 52.9 °F /  11.6 °C 30.1 in /  1017.5 hPa WSW 3 mph /  4.8 km/h 5 mph /  8.0 km/h 81 % 0 in /  0.0 mm
00:07 58.6 °F /  14.8 °C 52.9 °F /  11.6 °C 30.1 in /  1017.5 hPa WSW 1 mph /  1.6 km/h 5 mph /  8.0 km/h 81 % 0 in /  0.0 mm
00:12 58.8 °F /  14.9 °C 53.1 °F /  11.7 °C 30.1 in /  1017.5 hPa WSW 5 mph /  8.0 km/h 5 mph /  8.0 km/h 81 % 0 in /  0.0 mm
00:17 58.8 °F /  14.9 °C 53.1 °F /  11.7 °C 30.1 in /  1017.5 hPa West 2 mph /  3.2 km/h 5 mph /  8.0 km/h 81 % 0 in /  0.0 mm
00:22 58.8 °F /  14.9 °C 53.4 °F /  11.9 °C 30.1 in /  1017.5 hPa West 3 mph /  4.8 km/h 6 mph /  9.7 km/h 82 % 0 in /  0.0 mm
00:32 58.6 °F /  14.8 °C 53.2 °F /  11.8 °C 30.1 in /  1017.5 hPa Calm   6 mph /  9.7 km/h 82 % 0 in /  0.0 mm
00:42 58.5 °F /  14.7 °C 53.1 °F /  11.7 °C 30.1 in /  1017.5 hPa WSW 2 mph /  3.2 km/h 5 mph /  8.0 km/h 82 % 0 in /  0.0 mm
00:47 58.5 °F /  14.7 °C 53.1 °F /  11.7 °C 30.1 in /  1017.5 hPa WSW 1 mph /  1.6 km/h 4 mph /  6.4 km/h 82 % 0 in /  0.0 mm
00:52 58.3 °F /  14.6 °C 52.9 °F /  11.6 °C 30.1 in /  1017.5 hPa SW 2 mph /  3.2 km/h 4 mph /  6.4 km/h 82 % 0 in /  0.0 mm
00:57 58.3 °F /  14.6 °C 52.9 °F /  11.6 °C 30.1 in /  1017.5 hPa SW 2 mph /  3.2 km/h 4 mph /  6.4 km/h 82 % 0 in /  0.0 mm
01:02 58.1 °F /  14.5 °C 52.9 °F /  11.6 °C 30.1 in /  1017.5 hPa WSW 1 mph /  1.6 km/h 3 mph /  4.8 km/h 83 % 0 in /  0.0 mm
01:07 57.9 °F /  14.4 °C 52.7 °F /  11.5 °C 30.1 in /  1017.5 hPa Calm   4 mph /  6.4 km/h 83 % 0 in /  0.0 mm
01:12 57.9 °F /  14.4 °C 53.1 °F /  11.7 °C 30.1 in /  1017.5 hPa WSW 1 mph /  1.6 km/h 4 mph /  6.4 km/h 84 % 0 in /  0.0 mm
01:17 57.7 °F /  14.3 °C 52.9 °F /  11.6 °C 30.1 in /  1017.5 hPa SW 2 mph /  3.2 km/h 4 mph /  6.4 km/h 84 % 0 in /  0.0 mm
01:22 57.9 °F /  14.4 °C 53.1 °F /  11.7 °C 30.1 in /  1017.5 hPa WSW 2 mph /  3.2 km/h 4 mph /  6.4 km/h 84 % 0 in /  0.0 mm
01:27 57.9 °F /  14.4 °C 53.1 °F /  11.7 °C 30.1 in /  1017.5 hPa WSW 1 mph /  1.6 km/h 4 mph /  6.4 km/h 84 % 0 in /  0.0 mm
01:32 57.9 °F /  14.4 °C 53.4 °F /  11.9 °C 30.1 in /  1017.5 hPa WSW 1 mph /  1.6 km/h 4 mph /  6.4 km/h 85 % 0 in /  0.0 mm
01:42 57.6 °F /  14.2 °C 53.4 °F /  11.9 °C 30.1 in /  1017.5 hPa Calm   3 mph /  4.8 km/h 86 % 0 in /  0.0 mm
01:52 56.8 °F /  13.8 °C 53.2 °F /  11.8 °C 30.1 in /  1017.5 hPa SW 2 mph /  3.2 km/h 2 mph /  3.2 km/h 88 % 0 in /  0.0 mm
01:57 56.7 °F /  13.7 °C 53.1 °F /  11.7 °C 30.1 in /  1017.5 hPa SW 1 mph /  1.6 km/h 2 mph /  3.2 km/h 88 % 0 in /  0.0 mm
02:02 56.8 °F /  13.8 °C 53.2 °F /  11.8 °C 30.1 in /  1017.5 hPa Calm   2 mph /  3.2 km/h 88 % 0 in /  0.0 mm
02:07 56.8 °F /  13.8 °C 53.6 °F /  12.0 °C 30.1 in /  1017.5 hPa Calm   2 mph /  3.2 km/h 89 % 0 in /  0.0 mm
02:12 56.8 °F /  13.8 °C 53.2 °F /  11.8 °C 30.1 in /  1017.5 hPa Calm   2 mph /  3.2 km/h 88 % 0 in /  0.0 mm
02:17 56.7 °F /  13.7 °C 53.4 °F /  11.9 °C 30.1 in /  1017.5 hPa Calm   1 mph /  1.6 km/h 89 % 0 in /  0.0 mm
02:22 56.7 °F /  13.7 °C 53.4 °F /  11.9 °C 30.1 in /  1017.5 hPa Calm   1 mph /  1.6 km/h 89 % 0 in /  0.0 mm
02:32 56.7 °F /  13.7 °C 53.8 °F /  12.1 °C 30.1 in /  1017.5 hPa Calm   2 mph /  3.2 km/h 90 % 0 in /  0.0 mm
02:37 56.7 °F /  13.7 °C 53.8 °F /  12.1 °C 30 in /  1017.2 hPa Calm   2 mph /  3.2 km/h 90 % 0 in /  0.0 mm
02:42 56.5 °F /  13.6 °C 53.6 °F /  12.0 °C 30 in /  1017.2 hPa SSE 1 mph /  1.6 km/h 2 mph /  3.2 km/h 90 % 0 in /  0.0 mm
02:47 56.5 °F /  13.6 °C 54 °F /  12.2 °C 30 in /  1017.2 hPa Calm   1 mph /  1.6 km/h 91 % 0 in /  0.0 mm
02:52 56.5 °F /  13.6 °C 54 °F /  12.2 °C 30 in /  1017.2 hPa SE 1 mph /  1.6 km/h 1 mph /  1.6 km/h 91 % 0 in /  0.0 mm
02:57 56.5 °F /  13.6 °C 54 °F /  12.2 °C 30 in /  1017.2 hPa Calm   1 mph /  1.6 km/h 91 % 0 in /  0.0 mm
03:02 56.1 °F /  13.4 °C 53.6 °F /  12.0 °C 30 in /  1017.2 hPa Calm   2 mph /  3.2 km/h 91 % 0 in /  0.0 mm
03:07 55.9 °F /  13.3 °C 53.6 °F /  12.0 °C 30 in /  1017.2 hPa Calm   2 mph /  3.2 km/h 92 % 0 in /  0.0 mm
03:12 55.8 °F /  13.2 °C 53.4 °F /  11.9 °C 30 in /  1017.2 hPa Calm   2 mph /  3.2 km/h 92 % 0 in /  0.0 mm
03:17 55.6 °F /  13.1 °C 53.6 °F /  12.0 °C 30 in /  1017.2 hPa Calm     93 % 0 in /  0.0 mm
03:22 55.8 °F /  13.2 °C 54.1 °F /  12.3 °C 30 in /  1017.2 hPa Calm     94 % 0 in /  0.0 mm
03:27 55.9 °F /  13.3 °C 54.3 °F /  12.4 °C 30 in /  1017.2 hPa Calm     94 % 0 in /  0.0 mm
03:32 55.9 °F /  13.3 °C 54 °F /  12.2 °C 30 in /  1017.2 hPa SW 3 mph /  4.8 km/h 5 mph /  8.0 km/h 93 % 0 in /  0.0 mm
03:37 56.1 °F /  13.4 °C 54.1 °F /  12.3 °C 30 in /  1017.2 hPa SW 2 mph /  3.2 km/h 5 mph /  8.0 km/h 93 % 0 in /  0.0 mm
03:42 56.1 °F /  13.4 °C 54.1 °F /  12.3 °C 30 in /  1017.2 hPa South 1 mph /  1.6 km/h 5 mph /  8.0 km/h 93 % 0 in /  0.0 mm
03:47 55.8 °F /  13.2 °C 53.4 °F /  11.9 °C 30 in /  1017.2 hPa Calm   5 mph /  8.0 km/h 92 % 0 in /  0.0 mm
03:52 55.6 °F /  13.1 °C 53.2 °F /  11.8 °C 30 in /  1017.2 hPa Calm   5 mph /  8.0 km/h 92 % 0 in /  0.0 mm
03:57 55.2 °F /  12.9 °C 52.9 °F /  11.6 °C 30 in /  1017.2 hPa Calm   2 mph /  3.2 km/h 92 % 0 in /  0.0 mm
04:02 55 °F /  12.8 °C 53.1 °F /  11.7 °C 30 in /  1017.2 hPa Calm   2 mph /  3.2 km/h 93 % 0 in /  0.0 mm
04:07 54.9 °F /  12.7 °C 52.9 °F /  11.6 °C 30 in /  1017.2 hPa Calm   2 mph /  3.2 km/h 93 % 0 in /  0.0 mm
04:12 54.9 °F /  12.7 °C 52.9 °F /  11.6 °C 30 in /  1017.2 hPa Calm   1 mph /  1.6 km/h 93 % 0 in /  0.0 mm
04:17 54.7 °F /  12.6 °C 52.7 °F /  11.5 °C 30 in /  1017.2 hPa Calm     93 % 0 in /  0.0 mm
04:22 54.7 °F /  12.6 °C 52.7 °F /  11.5 °C 30 in /  1017.2 hPa SW 2 mph /  3.2 km/h   93 % 0 in /  0.0 mm
04:27 54.7 °F /  12.6 °C 53.1 °F /  11.7 °C 30 in /  1017.2 hPa SSW 2 mph /  3.2 km/h 3 mph /  4.8 km/h 94 % 0 in /  0.0 mm
04:32 54.7 °F /  12.6 °C 53.1 °F /  11.7 °C 30 in /  1017.2 hPa SSW 3 mph /  4.8 km/h 3 mph /  4.8 km/h 94 % 0 in /  0.0 mm
04:37 54.9 °F /  12.7 °C 53.2 °F /  11.8 °C 30 in /  1017.2 hPa SSW 4 mph /  6.4 km/h 4 mph /  6.4 km/h 94 % 0 in /  0.0 mm
04:42 54.9 °F /  12.7 °C 53.2 °F /  11.8 °C 30 in /  1017.2 hPa SSW 1 mph /  1.6 km/h 5 mph /  8.0 km/h 94 % 0 in /  0.0 mm
04:47 54.7 °F /  12.6 °C 52.7 °F /  11.5 °C 30 in /  1017.2 hPa SW 3 mph /  4.8 km/h 5 mph /  8.0 km/h 93 % 0 in /  0.0 mm
04:52 54.7 °F /  12.6 °C 52.7 °F /  11.5 °C 30 in /  1017.2 hPa SSW 1 mph /  1.6 km/h 5 mph /  8.0 km/h 93 % 0 in /  0.0 mm
04:57 54.9 °F /  12.7 °C 52.9 °F /  11.6 °C 30 in /  1017.2 hPa WSW 1 mph /  1.6 km/h 6 mph /  9.7 km/h 93 % 0 in /  0.0 mm
05:02 54.9 °F /  12.7 °C 52.5 °F /  11.4 °C 30 in /  1017.2 hPa WSW 3 mph /  4.8 km/h 6 mph /  9.7 km/h 92 % 0 in /  0.0 mm
05:07 55 °F /  12.8 °C 52.7 °F /  11.5 °C 30 in /  1016.8 hPa WSW 4 mph /  6.4 km/h 8 mph /  12.9 km/h 92 % 0 in /  0.0 mm
05:17 55 °F /  12.8 °C 52.5 °F /  11.4 °C 30 in /  1016.8 hPa SW 4 mph /  6.4 km/h 9 mph /  14.5 km/h 91 % 0 in /  0.0 mm
05:22 54.9 °F /  12.7 °C 52.3 °F /  11.3 °C 30 in /  1016.8 hPa WSW 6 mph /  9.7 km/h 9 mph /  14.5 km/h 91 % 0 in /  0.0 mm
05:32 54.9 °F /  12.7 °C 52.3 °F /  11.3 °C 30 in /  1016.8 hPa WSW 1 mph /  1.6 km/h 8 mph /  12.9 km/h 91 % 0 in /  0.0 mm
05:42 54.7 °F /  12.6 °C 52.2 °F /  11.2 °C 30 in /  1016.5 hPa WSW 3 mph /  4.8 km/h 6 mph /  9.7 km/h 91 % 0 in /  0.0 mm
05:47 54.7 °F /  12.6 °C 52.2 °F /  11.2 °C 30 in /  1016.5 hPa WSW 1 mph /  1.6 km/h 6 mph /  9.7 km/h 91 % 0 in /  0.0 mm
05:52 54.7 °F /  12.6 °C 52.2 °F /  11.2 °C 30 in /  1016.8 hPa SW 1 mph /  1.6 km/h 6 mph /  9.7 km/h 91 % 0 in /  0.0 mm
06:02 54.7 °F /  12.6 °C 52.2 °F /  11.2 °C 30 in /  1016.8 hPa SW 1 mph /  1.6 km/h 4 mph /  6.4 km/h 91 % 0 in /  0.0 mm
06:12 54.5 °F /  12.5 °C 52 °F /  11.1 °C 30 in /  1016.8 hPa SW 4 mph /  6.4 km/h 5 mph /  8.0 km/h 91 % 0 in /  0.0 mm
06:17 54.3 °F /  12.4 °C 51.8 °F /  11.0 °C 30 in /  1016.8 hPa SSW 3 mph /  4.8 km/h 6 mph /  9.7 km/h 91 % 0 in /  0.0 mm
06:22 54.3 °F /  12.4 °C 51.8 °F /  11.0 °C 30 in /  1016.8 hPa SW 3 mph /  4.8 km/h 6 mph /  9.7 km/h 91 % 0 in /  0.0 mm
06:32 54.3 °F /  12.4 °C 51.8 °F /  11.0 °C 30 in /  1016.8 hPa SSW 2 mph /  3.2 km/h 7 mph /  11.3 km/h 91 % 0 in /  0.0 mm
06:42 54.1 °F /  12.3 °C 51.6 °F /  10.9 °C 30 in /  1016.5 hPa Calm   6 mph /  9.7 km/h 91 % 0 in /  0.0 mm
06:52 54.1 °F /  12.3 °C 51.8 °F /  11.0 °C 30 in /  1016.8 hPa SSW 1 mph /  1.6 km/h 3 mph /  4.8 km/h 92 % 0 in /  0.0 mm
07:02 54.1 °F /  12.3 °C 51.8 °F /  11.0 °C 30 in /  1016.8 hPa South 1 mph /  1.6 km/h 4 mph /  6.4 km/h 92 % 0 in /  0.0 mm
07:12 54.1 °F /  12.3 °C 51.8 °F /  11.0 °C 30 in /  1016.8 hPa Calm   4 mph /  6.4 km/h 92 % 0 in /  0.0 mm
07:17 54.1 °F /  12.3 °C 51.8 °F /  11.0 °C 30 in /  1016.8 hPa Calm   4 mph /  6.4 km/h 92 % 0 in /  0.0 mm
07:22 54 °F /  12.2 °C 51.6 °F /  10.9 °C 30 in /  1016.8 hPa Calm   4 mph /  6.4 km/h 92 % 0 in /  0.0 mm
07:32 54 °F /  12.2 °C 52 °F /  11.1 °C 30 in /  1016.8 hPa Calm   2 mph /  3.2 km/h 93 % 0 in /  0.0 mm
07:37 54 °F /  12.2 °C 52 °F /  11.1 °C 30 in /  1016.8 hPa Calm   1 mph /  1.6 km/h 93 % 0 in /  0.0 mm
07:42 54.1 °F /  12.3 °C 52.2 °F /  11.2 °C 30 in /  1016.8 hPa Calm   1 mph /  1.6 km/h 93 % 0 in /  0.0 mm
07:47 54.3 °F /  12.4 °C 52.3 °F /  11.3 °C 30 in /  1016.8 hPa Calm     93 % 0 in /  0.0 mm
07:52 54.9 °F /  12.7 °C 52.9 °F /  11.6 °C 30 in /  1016.8 hPa Calm     93 % 0 in /  0.0 mm
07:57 55 °F /  12.8 °C 53.1 °F /  11.7 °C 30 in /  1016.8 hPa Calm   2 mph /  3.2 km/h 93 % 0 in /  0.0 mm
08:02 55.2 °F /  12.9 °C 52.9 °F /  11.6 °C 30 in /  1016.8 hPa Calm   2 mph /  3.2 km/h 92 % 0 in /  0.0 mm
08:12 55.4 °F /  13.0 °C 53.1 °F /  11.7 °C 30 in /  1016.8 hPa Calm   2 mph /  3.2 km/h 92 % 0 in /  0.0 mm
08:17 55.6 °F /  13.1 °C 53.2 °F /  11.8 °C 30 in /  1016.8 hPa Calm   2 mph /  3.2 km/h 92 % 0 in /  0.0 mm
08:22 55.6 °F /  13.1 °C 53.2 °F /  11.8 °C 30 in /  1016.8 hPa Calm   2 mph /  3.2 km/h 92 % 0 in /  0.0 mm
08:32 55.8 °F /  13.2 °C 53.4 °F /  11.9 °C 30 in /  1016.8 hPa Calm   2 mph /  3.2 km/h 92 % 0 in /  0.0 mm
08:42 56.1 °F /  13.4 °C 53.6 °F /  12.0 °C 30 in /  1016.8 hPa SW 1 mph /  1.6 km/h 2 mph /  3.2 km/h 91 % 0 in /  0.0 mm
08:52 56.3 °F /  13.5 °C 53.8 °F /  12.1 °C 30 in /  1016.8 hPa SW 2 mph /  3.2 km/h 5 mph /  8.0 km/h 91 % 0 in /  0.0 mm
09:02 56.5 °F /  13.6 °C 54 °F /  12.2 °C 30 in /  1016.8 hPa SSE 2 mph /  3.2 km/h 5 mph /  8.0 km/h 91 % 0 in /  0.0 mm
09:12 57 °F /  13.9 °C 54.1 °F /  12.3 °C 30 in /  1016.8 hPa SSW 3 mph /  4.8 km/h 5 mph /  8.0 km/h 90 % 0 in /  0.0 mm
09:17 57.4 °F /  14.1 °C 54.5 °F /  12.5 °C 30 in /  1016.8 hPa SSW 3 mph /  4.8 km/h 4 mph /  6.4 km/h 90 % 0 in /  0.0 mm
09:22 57.4 °F /  14.1 °C 54.1 °F /  12.3 °C 30 in /  1016.8 hPa SSE 2 mph /  3.2 km/h 5 mph /  8.0 km/h 89 % 0 in /  0.0 mm
09:32 57.9 °F /  14.4 °C 54.3 °F /  12.4 °C 30 in /  1017.2 hPa SSW 3 mph /  4.8 km/h 5 mph /  8.0 km/h 88 % 0 in /  0.0 mm
09:42 58.3 °F /  14.6 °C 54.5 °F /  12.5 °C 30 in /  1017.2 hPa SW 3 mph /  4.8 km/h 6 mph /  9.7 km/h 87 % 0 in /  0.0 mm
09:47 58.3 °F /  14.6 °C 53.8 °F /  12.1 °C 30 in /  1017.2 hPa SSW 3 mph /  4.8 km/h 8 mph /  12.9 km/h 85 % 0 in /  0.0 mm
09:52 58.5 °F /  14.7 °C 54.3 °F /  12.4 °C 30 in /  1017.2 hPa SSW 2 mph /  3.2 km/h 8 mph /  12.9 km/h 86 % 0 in /  0.0 mm
09:57 58.6 °F /  14.8 °C 54.1 °F /  12.3 °C 30 in /  1017.2 hPa SW 3 mph /  4.8 km/h 8 mph /  12.9 km/h 85 % 0 in /  0.0 mm
10:02 58.6 °F /  14.8 °C 54.1 °F /  12.3 °C 30 in /  1016.8 hPa SSW 2 mph /  3.2 km/h 8 mph /  12.9 km/h 85 % 0 in /  0.0 mm
10:12 58.8 °F /  14.9 °C 54 °F /  12.2 °C 30 in /  1017.2 hPa SSW 3 mph /  4.8 km/h 10 mph /  16.1 km/h 84 % 0 in /  0.0 mm
10:17 58.8 °F /  14.9 °C 54 °F /  12.2 °C 30 in /  1017.2 hPa WSW 4 mph /  6.4 km/h 12 mph /  19.3 km/h 84 % 0 in /  0.0 mm
10:22 58.8 °F /  14.9 °C 54 °F /  12.2 °C 30 in /  1017.2 hPa SW 7 mph /  11.3 km/h 12 mph /  19.3 km/h 84 % 0 in /  0.0 mm
10:32 58.8 °F /  14.9 °C 54 °F /  12.2 °C 30 in /  1017.2 hPa SSW 5 mph /  8.0 km/h 8 mph /  12.9 km/h 84 % 0 in /  0.0 mm
10:42 58.8 °F /  14.9 °C 54 °F /  12.2 °C 30 in /  1017.2 hPa South 5 mph /  8.0 km/h 10 mph /  16.1 km/h 84 % 0 in /  0.0 mm
10:47 58.6 °F /  14.8 °C 53.8 °F /  12.1 °C 30 in /  1017.2 hPa South 3 mph /  4.8 km/h 10 mph /  16.1 km/h 84 % 0 in /  0.0 mm
10:52 58.6 °F /  14.8 °C 54.1 °F /  12.3 °C 30 in /  1017.2 hPa SW 2 mph /  3.2 km/h 10 mph /  16.1 km/h 85 % 0 in /  0.0 mm
10:57 58.6 °F /  14.8 °C 54.1 °F /  12.3 °C 30 in /  1017.2 hPa South 2 mph /  3.2 km/h 9 mph /  14.5 km/h 85 % 0 in /  0.0 mm
11:02 58.6 °F /  14.8 °C 53.8 °F /  12.1 °C 30 in /  1017.2 hPa SSW 4 mph /  6.4 km/h 9 mph /  14.5 km/h 84 % 0 in /  0.0 mm
11:12 58.8 °F /  14.9 °C 54 °F /  12.2 °C 30 in /  1017.2 hPa South 3 mph /  4.8 km/h 7 mph /  11.3 km/h 84 % 0 in /  0.0 mm
11:17 59.2 °F /  15.1 °C 54.7 °F /  12.6 °C 30 in /  1017.2 hPa SSW 3 mph /  4.8 km/h 7 mph /  11.3 km/h 85 % 0 in /  0.0 mm
11:22 59.2 °F /  15.1 °C 54 °F /  12.2 °C 30 in /  1017.2 hPa SW 4 mph /  6.4 km/h 7 mph /  11.3 km/h 83 % 0 in /  0.0 mm
11:27 59.2 °F /  15.1 °C 53.6 °F /  12.0 °C 30 in /  1017.2 hPa SSW 6 mph /  9.7 km/h 9 mph /  14.5 km/h 82 % 0 in /  0.0 mm
11:32 59.4 °F /  15.2 °C 53.6 °F /  12.0 °C 30 in /  1017.2 hPa SW 5 mph /  8.0 km/h 9 mph /  14.5 km/h 81 % 0 in /  0.0 mm
11:37 59.4 °F /  15.2 °C 53.6 °F /  12.0 °C 30 in /  1017.2 hPa SW 4 mph /  6.4 km/h 11 mph /  17.7 km/h 81 % 0 in /  0.0 mm
11:42 59.5 °F /  15.3 °C 53.8 °F /  12.1 °C 30 in /  1017.2 hPa SW 6 mph /  9.7 km/h 11 mph /  17.7 km/h 81 % 0 in /  0.0 mm
11:47 59.5 °F /  15.3 °C 53.8 °F /  12.1 °C 30 in /  1017.2 hPa ESE 3 mph /  4.8 km/h 11 mph /  17.7 km/h 81 % 0 in /  0.0 mm
11:52 59.7 °F /  15.4 °C 53.6 °F /  12.0 °C 30 in /  1017.2 hPa WSW 6 mph /  9.7 km/h 11 mph /  17.7 km/h 80 % 0 in /  0.0 mm
11:57 60.1 °F /  15.6 °C 54.3 °F /  12.4 °C 30 in /  1017.2 hPa SW 2 mph /  3.2 km/h 9 mph /  14.5 km/h 81 % 0 in /  0.0 mm
12:02 60.3 °F /  15.7 °C 54.1 °F /  12.3 °C 30 in /  1017.2 hPa SW 4 mph /  6.4 km/h 9 mph /  14.5 km/h 80 % 0 in /  0.0 mm
12:12 60.4 °F /  15.8 °C 54.5 °F /  12.5 °C 30 in /  1017.2 hPa South 3 mph /  4.8 km/h 8 mph /  12.9 km/h 81 % 0 in /  0.0 mm
12:17 60.6 °F /  15.9 °C 54.1 °F /  12.3 °C 30 in /  1017.2 hPa SW 4 mph /  6.4 km/h 8 mph /  12.9 km/h 79 % 0 in /  0.0 mm
12:22 60.6 °F /  15.9 °C 54.5 °F /  12.5 °C 30 in /  1017.2 hPa SSW 5 mph /  8.0 km/h 8 mph /  12.9 km/h 80 % 0 in /  0.0 mm
12:32 60.8 °F /  16.0 °C 54.3 °F /  12.4 °C 30 in /  1017.2 hPa SSW 5 mph /  8.0 km/h 12 mph /  19.3 km/h 79 % 0 in /  0.0 mm
12:42 60.8 °F /  16.0 °C 54 °F /  12.2 °C 30 in /  1017.2 hPa WSW 8 mph /  12.9 km/h 10 mph /  16.1 km/h 78 % 0 in /  0.0 mm
12:47 60.8 °F /  16.0 °C 54 °F /  12.2 °C 30 in /  1017.2 hPa South 5 mph /  8.0 km/h 10 mph /  16.1 km/h 78 % 0 in /  0.0 mm
12:52 60.8 °F /  16.0 °C 54.7 °F /  12.6 °C 30 in /  1017.2 hPa SW 7 mph /  11.3 km/h 10 mph /  16.1 km/h 80 % 0 in /  0.0 mm
12:57 60.4 °F /  15.8 °C 54.5 °F /  12.5 °C 30 in /  1017.2 hPa SSW 4 mph /  6.4 km/h 10 mph /  16.1 km/h 81 % 0 in /  0.0 mm
13:02 60.3 °F /  15.7 °C 54.3 °F /  12.4 °C 30 in /  1017.2 hPa SW 5 mph /  8.0 km/h 11 mph /  17.7 km/h 81 % 0 in /  0.0 mm
13:07 60.3 °F /  15.7 °C 55 °F /  12.8 °C 30.1 in /  1017.5 hPa SW 3 mph /  4.8 km/h 11 mph /  17.7 km/h 83 % 0 in /  0.0 mm
13:12 60.1 °F /  15.6 °C 54.9 °F /  12.7 °C 30.1 in /  1017.5 hPa SW 1 mph /  1.6 km/h 11 mph /  17.7 km/h 83 % 0 in /  0.0 mm
13:17 60.1 °F /  15.6 °C 55.2 °F /  12.9 °C 30.1 in /  1017.5 hPa SW 4 mph /  6.4 km/h 9 mph /  14.5 km/h 84 % 0 in /  0.0 mm
13:22 60.1 °F /  15.6 °C 55.2 °F /  12.9 °C 30.1 in /  1017.5 hPa SSW 1 mph /  1.6 km/h 7 mph /  11.3 km/h 84 % 0 in /  0.0 mm
13:27 60.3 °F /  15.7 °C 55.8 °F /  13.2 °C 30.1 in /  1017.5 hPa SSW 3 mph /  4.8 km/h 7 mph /  11.3 km/h 85 % 0 in /  0.0 mm
13:32 61 °F /  16.1 °C 56.5 °F /  13.6 °C 30 in /  1017.2 hPa East 1 mph /  1.6 km/h 7 mph /  11.3 km/h 85 % 0 in /  0.0 mm
13:37 61.3 °F /  16.3 °C 56.5 °F /  13.6 °C 30 in /  1017.2 hPa SSE 2 mph /  3.2 km/h 7 mph /  11.3 km/h 84 % 0 in /  0.0 mm
13:42 62.1 °F /  16.7 °C 55.8 °F /  13.2 °C 30 in /  1017.2 hPa South 4 mph /  6.4 km/h 7 mph /  11.3 km/h 80 % 0 in /  0.0 mm
13:52 63 °F /  17.2 °C 54.1 °F /  12.3 °C 30 in /  1017.2 hPa South 7 mph /  11.3 km/h 7 mph /  11.3 km/h 73 % 0 in /  0.0 mm
13:57 63 °F /  17.2 °C 54.1 °F /  12.3 °C 30 in /  1017.2 hPa South 1 mph /  1.6 km/h 10 mph /  16.1 km/h 73 % 0 in /  0.0 mm
14:02 63.7 °F /  17.6 °C 54.9 °F /  12.7 °C 30 in /  1017.2 hPa South 5 mph /  8.0 km/h 10 mph /  16.1 km/h 73 % 0 in /  0.0 mm
14:12 63.9 °F /  17.7 °C 54 °F /  12.2 °C 30 in /  1017.2 hPa SW 6 mph /  9.7 km/h 9 mph /  14.5 km/h 70 % 0 in /  0.0 mm
14:17 63.7 °F /  17.6 °C 53.8 °F /  12.1 °C 30 in /  1017.2 hPa SSW 8 mph /  12.9 km/h 9 mph /  14.5 km/h 70 % 0 in /  0.0 mm
14:22 62.8 °F /  17.1 °C 53.6 °F /  12.0 °C 30 in /  1017.2 hPa South 2 mph /  3.2 km/h 11 mph /  17.7 km/h 72 % 0 in /  0.0 mm
14:27 62.2 °F /  16.8 °C 53.8 °F /  12.1 °C 30 in /  1017.2 hPa SSE 4 mph /  6.4 km/h 11 mph /  17.7 km/h 74 % 0 in /  0.0 mm
14:32 61 °F /  16.1 °C 54.1 °F /  12.3 °C 30 in /  1017.2 hPa SW 7 mph /  11.3 km/h 11 mph /  17.7 km/h 78 % 0.01 in /  0.3 mm
14:37 60.1 °F /  15.6 °C 54.3 °F /  12.4 °C 30.1 in /  1017.5 hPa SW 6 mph /  9.7 km/h 10 mph /  16.1 km/h 81 % 0.01 in /  0.3 mm
14:42 59.5 °F /  15.3 °C 54.3 °F /  12.4 °C 30 in /  1017.2 hPa WSW 2 mph /  3.2 km/h 10 mph /  16.1 km/h 83 % 0.02 in /  0.5 mm
14:52 59.4 °F /  15.2 °C 54.5 °F /  12.5 °C 30.1 in /  1017.5 hPa SW 2 mph /  3.2 km/h 10 mph /  16.1 km/h 84 % 0.02 in /  0.5 mm
14:57 59.2 °F /  15.1 °C 54 °F /  12.2 °C 30.1 in /  1017.5 hPa WSW 4 mph /  6.4 km/h 7 mph /  11.3 km/h 83 % 0.02 in /  0.5 mm
15:02 59 °F /  15.0 °C 54.5 °F /  12.5 °C 30.1 in /  1017.5 hPa West 5 mph /  8.0 km/h 7 mph /  11.3 km/h 85 % 0.02 in /  0.5 mm
15:07 58.6 °F /  14.8 °C 54.9 °F /  12.7 °C 30.1 in /  1017.5 hPa WSW 5 mph /  8.0 km/h 7 mph /  11.3 km/h 87 % 0.04 in /  1.0 mm
15:12 58.3 °F /  14.6 °C 54.7 °F /  12.6 °C 30.1 in /  1017.5 hPa WSW 5 mph /  8.0 km/h 8 mph /  12.9 km/h 88 % 0.05 in /  1.3 mm
15:17 57.9 °F /  14.4 °C 54.7 °F /  12.6 °C 30.1 in /  1017.5 hPa WSW 1 mph /  1.6 km/h 8 mph /  12.9 km/h 89 % 0.07 in /  1.8 mm
15:22 57.7 °F /  14.3 °C 54.9 °F /  12.7 °C 30.1 in /  1017.5 hPa Calm   6 mph /  9.7 km/h 90 % 0.16 in /  4.1 mm
15:27 58.3 °F /  14.6 °C 55.6 °F /  13.1 °C 30.1 in /  1017.5 hPa Calm   5 mph /  8.0 km/h 91 % 0.17 in /  4.3 mm
15:32 58.6 °F /  14.8 °C 56.3 °F /  13.5 °C 30.1 in /  1017.5 hPa SSW 2 mph /  3.2 km/h 2 mph /  3.2 km/h 92 % 0.16 in /  4.1 mm
15:37 59.2 °F /  15.1 °C 56.5 °F /  13.6 °C 30.1 in /  1017.5 hPa ESE 1 mph /  1.6 km/h 2 mph /  3.2 km/h 91 % 0.15 in /  3.8 mm
15:42 59.4 °F /  15.2 °C 56.7 °F /  13.7 °C 30.1 in /  1017.5 hPa ESE 1 mph /  1.6 km/h 4 mph /  6.4 km/h 91 % 0.15 in /  3.8 mm
15:52 60.4 °F /  15.8 °C 58.1 °F /  14.5 °C 30 in /  1017.2 hPa SE 1 mph /  1.6 km/h 4 mph /  6.4 km/h 92 % 0.15 in /  3.8 mm
15:57 61.2 °F /  16.2 °C 58.5 °F /  14.7 °C 30 in /  1017.2 hPa Calm   3 mph /  4.8 km/h 91 % 0.15 in /  3.8 mm
16:02 61.7 °F /  16.5 °C 59 °F /  15.0 °C 30 in /  1017.2 hPa East 5 mph /  8.0 km/h 5 mph /  8.0 km/h 91 % 0.14 in /  3.6 mm
16:07 62.2 °F /  16.8 °C 58.3 °F /  14.6 °C 30 in /  1017.2 hPa East 2 mph /  3.2 km/h 5 mph /  8.0 km/h 87 % 0.13 in /  3.3 mm
16:12 63 °F /  17.2 °C 59 °F /  15.0 °C 30 in /  1016.8 hPa East 4 mph /  6.4 km/h 8 mph /  12.9 km/h 87 % 0.11 in /  2.8 mm
16:17 63.3 °F /  17.4 °C 58.1 °F /  14.5 °C 30 in /  1016.8 hPa East 5 mph /  8.0 km/h 8 mph /  12.9 km/h 83 % 0.06 in /  1.5 mm
16:22 64 °F /  17.8 °C 59.7 °F /  15.4 °C 30 in /  1016.8 hPa West 2 mph /  3.2 km/h 8 mph /  12.9 km/h 86 % 0 in /  0.0 mm
16:27 64.4 °F /  18.0 °C 59.2 °F /  15.1 °C 30 in /  1016.8 hPa East 2 mph /  3.2 km/h 8 mph /  12.9 km/h 83 % 0 in /  0.0 mm
16:32 63.5 °F /  17.5 °C 57.6 °F /  14.2 °C 30 in /  1016.8 hPa West 1 mph /  1.6 km/h 8 mph /  12.9 km/h 81 % 0 in /  0.0 mm
16:37 62.2 °F /  16.8 °C 54.1 °F /  12.3 °C 30.1 in /  1017.8 hPa West 14 mph /  22.5 km/h 14 mph /  22.5 km/h 75 % 0 in /  0.0 mm
16:42 59 °F /  15.0 °C 53.2 °F /  11.8 °C 30.1 in /  1017.8 hPa West 7 mph /  11.3 km/h 16 mph /  25.7 km/h 81 % 0.06 in /  1.5 mm
16:47 57.6 °F /  14.2 °C 53.4 °F /  11.9 °C 30.1 in /  1017.5 hPa NW 2 mph /  3.2 km/h 16 mph /  25.7 km/h 86 % 0.09 in /  2.3 mm
16:52 57.4 °F /  14.1 °C 53.8 °F /  12.1 °C 30.1 in /  1017.5 hPa NW 3 mph /  4.8 km/h 16 mph /  25.7 km/h 88 % 0.13 in /  3.3 mm
16:57 57.6 °F /  14.2 °C 53.8 °F /  12.1 °C 30.1 in /  1017.5 hPa NW 5 mph /  8.0 km/h 9 mph /  14.5 km/h 87 % 0.13 in /  3.3 mm
17:02 57.7 °F /  14.3 °C 53.2 °F /  11.8 °C 30.1 in /  1017.5 hPa WNW 2 mph /  3.2 km/h 9 mph /  14.5 km/h 85 % 0.13 in /  3.3 mm
17:07 58.5 °F /  14.7 °C 54.3 °F /  12.4 °C 30.1 in /  1017.5 hPa NNW 4 mph /  6.4 km/h 8 mph /  12.9 km/h 86 % 0.13 in /  3.3 mm
17:12 58.5 °F /  14.7 °C 53.6 °F /  12.0 °C 30.1 in /  1017.5 hPa NNW 1 mph /  1.6 km/h 8 mph /  12.9 km/h 84 % 0.13 in /  3.3 mm
17:17 58.6 °F /  14.8 °C 53.4 °F /  11.9 °C 30.1 in /  1017.5 hPa WNW 3 mph /  4.8 km/h 7 mph /  11.3 km/h 83 % 0.13 in /  3.3 mm
17:22 59.4 °F /  15.2 °C 54.5 °F /  12.5 °C 30.1 in /  1017.5 hPa North 4 mph /  6.4 km/h 7 mph /  11.3 km/h 84 % 0.13 in /  3.3 mm
17:27 59.7 °F /  15.4 °C 54.9 °F /  12.7 °C 30.1 in /  1017.8 hPa Calm   5 mph /  8.0 km/h 84 % 0.13 in /  3.3 mm
17:32 60.4 °F /  15.8 °C 55.2 °F /  12.9 °C 30.1 in /  1017.8 hPa Calm   5 mph /  8.0 km/h 83 % 0.13 in /  3.3 mm
17:37 61 °F /  16.1 °C 55 °F /  12.8 °C 30.1 in /  1017.8 hPa Calm   5 mph /  8.0 km/h 81 % 0.13 in /  3.3 mm
17:42 61.3 °F /  16.3 °C 55.4 °F /  13.0 °C 30.1 in /  1017.8 hPa Calm   4 mph /  6.4 km/h 81 % 0.06 in /  1.5 mm
17:47 61.9 °F /  16.6 °C 54.7 °F /  12.6 °C 30.1 in /  1017.8 hPa WNW 2 mph /  3.2 km/h 3 mph /  4.8 km/h 77 % 0.01 in /  0.3 mm
17:52 62.2 °F /  16.8 °C 54.1 °F /  12.3 °C 30.1 in /  1017.8 hPa WSW 2 mph /  3.2 km/h 6 mph /  9.7 km/h 75 % 0 in /  0.0 mm
17:57 62.4 °F /  16.9 °C 53.2 °F /  11.8 °C 30.1 in /  1017.8 hPa WNW 6 mph /  9.7 km/h 10 mph /  16.1 km/h 72 % 0 in /  0.0 mm
18:02 62.8 °F /  17.1 °C 53.6 °F /  12.0 °C 30.1 in /  1017.8 hPa WNW 5 mph /  8.0 km/h 11 mph /  17.7 km/h 72 % 0 in /  0.0 mm
18:07 63 °F /  17.2 °C 52.2 °F /  11.2 °C 30.1 in /  1018.2 hPa SW 4 mph /  6.4 km/h 12 mph /  19.3 km/h 68 % 0 in /  0.0 mm
18:12 62.6 °F /  17.0 °C 52 °F /  11.1 °C 30.1 in /  1018.2 hPa West 7 mph /  11.3 km/h 14 mph /  22.5 km/h 68 % 0 in /  0.0 mm
18:17 62.8 °F /  17.1 °C 52.5 °F /  11.4 °C 30.1 in /  1018.2 hPa West 11 mph /  17.7 km/h 14 mph /  22.5 km/h 69 % 0 in /  0.0 mm
18:22 62.8 °F /  17.1 °C 52 °F /  11.1 °C 30.1 in /  1018.2 hPa WNW 4 mph /  6.4 km/h 14 mph /  22.5 km/h 68 % 0 in /  0.0 mm
18:32 62.4 °F /  16.9 °C 51.8 °F /  11.0 °C 30.1 in /  1018.2 hPa West 4 mph /  6.4 km/h 12 mph /  19.3 km/h 68 % 0 in /  0.0 mm
18:37 62.8 °F /  17.1 °C 51.6 °F /  10.9 °C 30.1 in /  1017.8 hPa SW 5 mph /  8.0 km/h 12 mph /  19.3 km/h 67 % 0 in /  0.0 mm
18:42 63 °F /  17.2 °C 51.4 °F /  10.8 °C 30.1 in /  1018.2 hPa WSW 2 mph /  3.2 km/h 9 mph /  14.5 km/h 66 % 0 in /  0.0 mm
18:47 62.8 °F /  17.1 °C 51.3 °F /  10.7 °C 30.1 in /  1017.8 hPa West 3 mph /  4.8 km/h 7 mph /  11.3 km/h 66 % 0 in /  0.0 mm
18:52 63.1 °F /  17.3 °C 51.6 °F /  10.9 °C 30.1 in /  1017.8 hPa SSW 1 mph /  1.6 km/h 7 mph /  11.3 km/h 66 % 0 in /  0.0 mm
18:57 63.1 °F /  17.3 °C 50.7 °F /  10.4 °C 30.1 in /  1017.8 hPa West 4 mph /  6.4 km/h 9 mph /  14.5 km/h 64 % 0 in /  0.0 mm
19:02 63 °F /  17.2 °C 51.4 °F /  10.8 °C 30.1 in /  1017.8 hPa SW 5 mph /  8.0 km/h 11 mph /  17.7 km/h 66 % 0 in /  0.0 mm
19:12 62.2 °F /  16.8 °C 50.7 °F /  10.4 °C 30.1 in /  1017.8 hPa WSW 10 mph /  16.1 km/h 10 mph /  16.1 km/h 66 % 0 in /  0.0 mm
19:17 62.2 °F /  16.8 °C 50.4 °F /  10.2 °C 30.1 in /  1017.8 hPa SSW 5 mph /  8.0 km/h 13 mph /  20.9 km/h 65 % 0 in /  0.0 mm
19:22 62.4 °F /  16.9 °C 50.5 °F /  10.3 °C 30.1 in /  1018.2 hPa SW 7 mph /  11.3 km/h 14 mph /  22.5 km/h 65 % 0 in /  0.0 mm
19:27 62.4 °F /  16.9 °C 50.5 °F /  10.3 °C 30.1 in /  1018.2 hPa SW 8 mph /  12.9 km/h 14 mph /  22.5 km/h 65 % 0 in /  0.0 mm
19:32 62.1 °F /  16.7 °C 50.2 °F /  10.1 °C 30.1 in /  1018.2 hPa WSW 3 mph /  4.8 km/h 14 mph /  22.5 km/h 65 % 0 in /  0.0 mm
19:37 61.7 °F /  16.5 °C 49.8 °F /  9.9 °C 30.1 in /  1018.2 hPa SSW 5 mph /  8.0 km/h 12 mph /  19.3 km/h 65 % 0 in /  0.0 mm
19:42 61.2 °F /  16.2 °C 49.6 °F /  9.8 °C 30.1 in /  1018.2 hPa SW 5 mph /  8.0 km/h 12 mph /  19.3 km/h 66 % 0 in /  0.0 mm
19:47 61 °F /  16.1 °C 49.5 °F /  9.7 °C 30.1 in /  1018.2 hPa SSW 3 mph /  4.8 km/h 12 mph /  19.3 km/h 66 % 0 in /  0.0 mm
19:52 60.6 °F /  15.9 °C 48.7 °F /  9.3 °C 30.1 in /  1018.2 hPa SW 6 mph /  9.7 km/h 11 mph /  17.7 km/h 65 % 0 in /  0.0 mm
19:57 60.6 °F /  15.9 °C 48.4 °F /  9.1 °C 30.1 in /  1018.2 hPa WSW 9 mph /  14.5 km/h 11 mph /  17.7 km/h 64 % 0 in /  0.0 mm
20:02 60.4 °F /  15.8 °C 48.6 °F /  9.2 °C 30.1 in /  1018.2 hPa WSW 3 mph /  4.8 km/h 11 mph /  17.7 km/h 65 % 0 in /  0.0 mm
20:12 60.1 °F /  15.6 °C 48.7 °F /  9.3 °C 30.1 in /  1018.2 hPa SW 5 mph /  8.0 km/h 11 mph /  17.7 km/h 66 % 0 in /  0.0 mm
20:17 60.1 °F /  15.6 °C 48.7 °F /  9.3 °C 30.1 in /  1018.2 hPa WSW 5 mph /  8.0 km/h 11 mph /  17.7 km/h 66 % 0 in /  0.0 mm
20:22 59.9 °F /  15.5 °C 48.9 °F /  9.4 °C 30.1 in /  1018.2 hPa SSW 2 mph /  3.2 km/h 11 mph /  17.7 km/h 67 % 0 in /  0.0 mm
20:27 59.9 °F /  15.5 °C 49.3 °F /  9.6 °C 30.1 in /  1018.2 hPa WSW 4 mph /  6.4 km/h 11 mph /  17.7 km/h 68 % 0 in /  0.0 mm
20:32 59.7 °F /  15.4 °C 49.1 °F /  9.5 °C 30.1 in /  1018.2 hPa WSW 2 mph /  3.2 km/h 7 mph /  11.3 km/h 68 % 0 in /  0.0 mm
20:42 60.1 °F /  15.6 °C 49.8 °F /  9.9 °C 30.1 in /  1018.2 hPa SW 3 mph /  4.8 km/h 8 mph /  12.9 km/h 69 % 0 in /  0.0 mm
20:47 59.7 °F /  15.4 °C 50 °F /  10.0 °C 30.1 in /  1018.5 hPa WSW 3 mph /  4.8 km/h 8 mph /  12.9 km/h 70 % 0 in /  0.0 mm
20:52 59.5 °F /  15.3 °C 50.2 °F /  10.1 °C 30.1 in /  1018.5 hPa WSW 3 mph /  4.8 km/h 8 mph /  12.9 km/h 71 % 0 in /  0.0 mm
20:57 59.4 °F /  15.2 °C 50.4 °F /  10.2 °C 30.1 in /  1018.5 hPa SW 3 mph /  4.8 km/h 8 mph /  12.9 km/h 72 % 0 in /  0.0 mm
21:02 59.2 °F /  15.1 °C 50.5 °F /  10.3 °C 30.1 in /  1018.5 hPa WSW 5 mph /  8.0 km/h 8 mph /  12.9 km/h 73 % 0 in /  0.0 mm
21:12 58.8 °F /  14.9 °C 50.5 °F /  10.3 °C 30.1 in /  1018.8 hPa SW 3 mph /  4.8 km/h 7 mph /  11.3 km/h 74 % 0 in /  0.0 mm
21:17 58.6 °F /  14.8 °C 50.7 °F /  10.4 °C 30.1 in /  1018.8 hPa WSW 4 mph /  6.4 km/h 7 mph /  11.3 km/h 75 % 0 in /  0.0 mm
21:22 58.6 °F /  14.8 °C 50.7 °F /  10.4 °C 30.1 in /  1018.8 hPa SW 3 mph /  4.8 km/h 6 mph /  9.7 km/h 75 % 0 in /  0.0 mm
21:32 58.3 °F /  14.6 °C 50.7 °F /  10.4 °C 30.1 in /  1019.2 hPa SW 2 mph /  3.2 km/h 5 mph /  8.0 km/h 76 % 0 in /  0.0 mm
21:42 57.9 °F /  14.4 °C 50.7 °F /  10.4 °C 30.1 in /  1019.5 hPa SSW 2 mph /  3.2 km/h 7 mph /  11.3 km/h 77 % 0 in /  0.0 mm
21:47 57.7 °F /  14.3 °C 50.5 °F /  10.3 °C 30.1 in /  1019.5 hPa West 2 mph /  3.2 km/h 7 mph /  11.3 km/h 77 % 0 in /  0.0 mm
21:52 57.6 °F /  14.2 °C 50.4 °F /  10.2 °C 30.1 in /  1019.5 hPa WSW 1 mph /  1.6 km/h 7 mph /  11.3 km/h 77 % 0 in /  0.0 mm
21:57 57.4 °F /  14.1 °C 50.5 °F /  10.3 °C 30.1 in /  1019.5 hPa SSW 1 mph /  1.6 km/h 6 mph /  9.7 km/h 78 % 0 in /  0.0 mm
22:02 57.2 °F /  14.0 °C 50.4 °F /  10.2 °C 30.1 in /  1019.5 hPa SSW 1 mph /  1.6 km/h 4 mph /  6.4 km/h 78 % 0 in /  0.0 mm
22:12 57.2 °F /  14.0 °C 50.4 °F /  10.2 °C 30.1 in /  1019.9 hPa WSW 2 mph /  3.2 km/h 5 mph /  8.0 km/h 78 % 0 in /  0.0 mm
22:17 57 °F /  13.9 °C 50.2 °F /  10.1 °C 30.1 in /  1019.9 hPa WSW 3 mph /  4.8 km/h 5 mph /  8.0 km/h 78 % 0 in /  0.0 mm
22:22 57 °F /  13.9 °C 50.5 °F /  10.3 °C 30.1 in /  1019.9 hPa West 2 mph /  3.2 km/h 5 mph /  8.0 km/h 79 % 0 in /  0.0 mm
22:27 56.8 °F /  13.8 °C 50.4 °F /  10.2 °C 30.1 in /  1019.9 hPa West 2 mph /  3.2 km/h 4 mph /  6.4 km/h 79 % 0 in /  0.0 mm
22:32 56.7 °F /  13.7 °C 50.2 °F /  10.1 °C 30.1 in /  1020.2 hPa SW 3 mph /  4.8 km/h 5 mph /  8.0 km/h 79 % 0 in /  0.0 mm
22:37 56.5 °F /  13.6 °C 50.7 °F /  10.4 °C 30.1 in /  1019.9 hPa WSW 3 mph /  4.8 km/h 6 mph /  9.7 km/h 81 % 0 in /  0.0 mm
22:42 56.1 °F /  13.4 °C 50.4 °F /  10.2 °C 30.1 in /  1020.2 hPa SW 4 mph /  6.4 km/h 7 mph /  11.3 km/h 81 % 0 in /  0.0 mm
22:47 56.1 °F /  13.4 °C 50.4 °F /  10.2 °C 30.1 in /  1020.2 hPa SW 6 mph /  9.7 km/h 7 mph /  11.3 km/h 81 % 0 in /  0.0 mm
22:52 55.9 °F /  13.3 °C 49.8 °F /  9.9 °C 30.1 in /  1020.2 hPa WSW 3 mph /  4.8 km/h 7 mph /  11.3 km/h 80 % 0 in /  0.0 mm
22:57 55.9 °F /  13.3 °C 49.8 °F /  9.9 °C 30.1 in /  1020.2 hPa WSW 3 mph /  4.8 km/h 8 mph /  12.9 km/h 80 % 0 in /  0.0 mm
23:07 55.9 °F /  13.3 °C 49.8 °F /  9.9 °C 30.1 in /  1020.2 hPa SW 4 mph /  6.4 km/h 8 mph /  12.9 km/h 80 % 0 in /  0.0 mm
23:12 55.9 °F /  13.3 °C 49.5 °F /  9.7 °C 30.1 in /  1020.2 hPa SW 4 mph /  6.4 km/h 8 mph /  12.9 km/h 79 % 0 in /  0.0 mm
23:17 55.9 °F /  13.3 °C 49.1 °F /  9.5 °C 30.1 in /  1020.2 hPa WSW 3 mph /  4.8 km/h 8 mph /  12.9 km/h 78 % 0 in /  0.0 mm
23:22 55.8 °F /  13.2 °C 48.9 °F /  9.4 °C 30.1 in /  1020.2 hPa WSW 6 mph /  9.7 km/h 9 mph /  14.5 km/h 78 % 0 in /  0.0 mm
23:27 55.6 °F /  13.1 °C 49.1 °F /  9.5 °C 30.1 in /  1020.2 hPa WSW 4 mph /  6.4 km/h 9 mph /  14.5 km/h 79 % 0 in /  0.0 mm
23:32 55.4 °F /  13.0 °C 48.9 °F /  9.4 °C 30.1 in /  1020.2 hPa WSW 5 mph /  8.0 km/h 9 mph /  14.5 km/h 79 % 0 in /  0.0 mm
23:37 55.2 °F /  12.9 °C 48.7 °F /  9.3 °C 30.1 in /  1020.2 hPa WSW 2 mph /  3.2 km/h 7 mph /  11.3 km/h 79 % 0 in /  0.0 mm
23:42 55 °F /  12.8 °C 48.6 °F /  9.2 °C 30.1 in /  1020.5 hPa Calm   6 mph /  9.7 km/h 79 % 0 in /  0.0 mm
23:47 54.9 °F /  12.7 °C 48.7 °F /  9.3 °C 30.1 in /  1020.5 hPa Calm   6 mph /  9.7 km/h 80 % 0 in /  0.0 mm
23:52 54.7 °F /  12.6 °C 48.9 °F /  9.4 °C 30.1 in /  1020.5 hPa SW 1 mph /  1.6 km/h 4 mph /  6.4 km/h 81 % 0 in /  0.0 mm
23:57 54.3 °F /  12.4 °C 48.9 °F /  9.4 °C 30.1 in /  1020.5 hPa SW 3 mph /  4.8 km/h 3 mph /  4.8 km/h 82 % 0 in /  0.0 mm
Meteo18
Compliments of Weather Underground - 4 mb

Script developed by  Jim McMurry - jmcmurry@mwt.net Adapted for the template by  Wim van der Kuil - Leuven-Template.eu

You find our weather info also at:

European Weather Network

Weather Underground

Equipment we use:

Weather-station
Davis Vue

Weather-program
Meteohub

Weather-server
Raspberry PI 2 B+

Provider
1 and 1

Davis Vue

Meteohub

Raspberry PI 2 B+

1 and 1